createdAt,value
2023-04-09T00:01:16.574Z,12.75
2023-04-09T00:06:17.922Z,11.55
2023-04-09T00:11:19.280Z,11.45
2023-04-09T00:16:20.663Z,9.32
2023-04-09T00:21:22.233Z,9.50
2023-04-09T00:26:23.644Z,10.35
2023-04-09T00:31:25.169Z,11.07
2023-04-09T00:36:27.164Z,11.13
2023-04-09T00:41:28.500Z,13.57
2023-04-09T00:46:31.710Z,9.88
2023-04-09T00:51:33.519Z,12.05
2023-04-09T00:56:36.259Z,11.05
2023-04-09T01:01:37.718Z,12.00
2023-04-09T01:06:53.735Z,11.13
2023-04-09T01:12:31.920Z,11.20
2023-04-09T01:17:55.569Z,10.98
2023-04-09T01:23:34.740Z,15.48
2023-04-09T01:28:41.692Z,18.15
2023-04-09T01:33:43.935Z,13.40
2023-04-09T01:38:48.497Z,11.80
2023-04-09T01:43:51.866Z,12.50
2023-04-09T01:48:55.153Z,13.68
2023-04-09T01:53:56.637Z,16.20
2023-04-09T01:58:57.955Z,12.95
2023-04-09T02:04:05.316Z,13.05
2023-04-09T02:09:08.937Z,15.70
2023-04-09T02:14:12.322Z,13.18
2023-04-09T02:19:13.668Z,12.43
2023-04-09T02:24:15.151Z,14.80
2023-04-09T02:29:16.554Z,13.07
2023-04-09T02:34:19.429Z,15.20
2023-04-09T02:39:20.770Z,13.70
2023-04-09T02:44:22.138Z,14.85
2023-04-09T02:49:23.665Z,11.88
2023-04-09T02:54:25.052Z,13.55
2023-04-09T02:59:26.420Z,14.73
2023-04-09T03:04:27.807Z,13.57
2023-04-09T03:09:30.278Z,12.82
2023-04-09T03:14:31.660Z,12.48
2023-04-09T03:19:33.592Z,13.15
2023-04-09T03:24:34.970Z,12.55
2023-04-09T03:29:36.359Z,13.30
2023-04-09T03:34:37.719Z,10.73
2023-04-09T03:39:39.180Z,12.25
2023-04-09T03:44:40.521Z,13.70
2023-04-09T03:49:41.893Z,14.38
2023-04-09T03:54:43.500Z,14.13
2023-04-09T03:59:45.325Z,11.43
2023-04-09T04:04:46.737Z,13.25
2023-04-09T04:09:48.127Z,16.45
2023-04-09T04:14:49.446Z,15.73
2023-04-09T04:19:50.788Z,15.93
2023-04-09T04:24:52.108Z,17.58
2023-04-09T04:29:53.440Z,16.23
2023-04-09T04:34:54.843Z,13.80
2023-04-09T04:39:56.164Z,16.45
2023-04-09T04:57:09.298Z,17.88
2023-04-09T05:02:11.586Z,14.93
2023-04-09T05:07:13.686Z,13.48
2023-04-09T05:12:18.153Z,17.33
2023-04-09T05:22:36.900Z,17.90
2023-04-09T05:27:54.771Z,14.07
2023-04-09T05:32:58.766Z,16.20
2023-04-09T05:38:00.662Z,13.40
2023-04-09T05:43:02.776Z,15.60
2023-04-09T05:48:04.882Z,14.90
2023-04-09T05:53:06.638Z,16.23
2023-04-09T06:14:40.892Z,15.65
2023-04-09T06:19:43.354Z,12.20
2023-04-09T06:51:31.681Z,15.98
2023-04-09T06:56:34.285Z,15.40
2023-04-09T07:01:37.584Z,17.02
2023-04-09T07:06:40.283Z,19.92
2023-04-09T07:11:41.684Z,20.05
2023-04-09T07:16:44.202Z,16.77
2023-04-09T07:21:45.623Z,16.77
2023-04-09T07:26:46.984Z,17.95
2023-04-09T07:31:48.448Z,18.00
2023-04-09T07:36:50.149Z,17.42
2023-04-09T07:41:51.456Z,18.02
2023-04-09T07:46:52.913Z,18.38
2023-04-09T07:51:54.290Z,17.25
2023-04-09T07:56:56.583Z,18.20
2023-04-09T08:01:58.067Z,19.63
2023-04-09T08:06:59.503Z,22.02
2023-04-09T08:12:01.158Z,16.90
2023-04-09T08:17:02.706Z,18.67
2023-04-09T08:22:04.164Z,15.98
2023-04-09T08:27:05.556Z,17.60
2023-04-09T08:32:07.013Z,18.38
2023-04-09T08:37:08.460Z,19.58
2023-04-09T08:42:12.523Z,16.42
2023-04-09T08:47:14.355Z,19.45
2023-04-09T08:52:17.601Z,15.60
2023-04-09T08:57:18.931Z,16.33
2023-04-09T09:02:20.438Z,18.30
2023-04-09T09:07:21.922Z,15.57
2023-04-09T09:12:31.854Z,16.98
2023-04-09T09:17:34.490Z,19.90
2023-04-09T09:22:55.205Z,18.67
2023-04-09T09:28:07.543Z,16.92
2023-04-09T09:33:10.745Z,15.65
2023-04-09T09:38:12.149Z,13.60
2023-04-09T09:43:14.716Z,15.98
2023-04-09T09:48:16.443Z,15.85
2023-04-09T09:53:22.947Z,12.10
2023-04-09T09:58:31.843Z,13.00
2023-04-09T10:03:37.493Z,12.10
2023-04-09T10:08:42.156Z,12.07
2023-04-09T10:13:49.660Z,16.23
2023-04-09T10:18:51.572Z,13.65
2023-04-09T10:23:53.947Z,12.32
2023-04-09T10:29:09.020Z,11.55
2023-04-09T10:34:11.015Z,10.95
2023-04-09T10:39:16.013Z,14.38
2023-04-09T10:44:26.246Z,11.93
2023-04-09T10:49:28.015Z,9.07
2023-04-09T10:54:35.163Z,11.43
2023-04-09T11:05:02.419Z,11.43
2023-04-09T11:10:04.097Z,9.43
2023-04-09T11:15:05.972Z,7.57
2023-04-09T11:20:07.578Z,7.05
2023-04-09T11:25:09.227Z,11.88
2023-04-09T11:30:10.960Z,9.35
2023-04-09T11:35:14.237Z,9.93
2023-04-09T11:40:26.571Z,7.97
2023-04-09T11:45:29.586Z,7.55
2023-04-09T11:50:31.970Z,8.07
2023-04-09T11:55:33.554Z,10.57
2023-04-09T12:00:34.947Z,8.00
2023-04-09T12:05:37.126Z,10.23
2023-04-09T12:10:39.997Z,7.75
2023-04-09T12:15:43.389Z,8.80
2023-04-09T12:20:47.444Z,6.93
2023-04-09T12:25:48.782Z,6.90
2023-04-09T12:30:50.931Z,7.00
2023-04-09T12:35:52.343Z,8.40
2023-04-09T12:40:53.791Z,8.40
2023-04-09T12:45:55.200Z,7.38
2023-04-09T12:50:56.549Z,10.15
2023-04-09T12:55:58.240Z,8.18
2023-04-09T13:00:59.680Z,8.88
2023-04-09T13:06:01.138Z,8.55
2023-04-09T13:11:02.764Z,6.88
2023-04-09T13:16:04.472Z,5.80
2023-04-09T13:21:06.046Z,5.43
2023-04-09T13:26:07.383Z,7.43
2023-04-09T13:31:08.792Z,6.75
2023-04-09T13:36:10.515Z,4.40
2023-04-09T13:41:11.972Z,5.10
2023-04-09T13:46:13.448Z,6.18
2023-04-09T13:51:14.890Z,5.60
2023-04-09T13:56:16.694Z,4.53
2023-04-09T14:01:18.164Z,5.30
2023-04-09T14:06:19.592Z,3.60
2023-04-09T14:11:21.158Z,5.78
2023-04-09T14:16:23.599Z,4.32
2023-04-09T14:21:26.502Z,4.57
2023-04-09T14:26:28.966Z,3.92
2023-04-09T14:31:30.627Z,4.88
2023-04-09T14:36:32.171Z,4.25
2023-04-09T14:41:34.216Z,4.35
2023-04-09T14:46:36.587Z,4.60
2023-04-09T14:51:38.022Z,4.78
2023-04-09T14:56:39.443Z,4.35
2023-04-09T15:01:40.889Z,4.00
2023-04-09T15:06:42.395Z,3.78
2023-04-09T15:11:43.763Z,4.20
2023-04-09T15:16:45.282Z,5.10
2023-04-09T15:21:46.608Z,3.42
2023-04-09T15:26:47.962Z,3.13
2023-04-09T15:31:53.053Z,3.90
2023-04-09T15:36:54.503Z,2.70
2023-04-09T15:41:58.781Z,3.38
2023-04-09T15:47:00.149Z,3.67
2023-04-09T15:52:01.486Z,2.22
2023-04-09T15:57:04.152Z,2.78
2023-04-09T16:02:06.018Z,2.15
2023-04-09T16:07:07.703Z,2.13
2023-04-09T16:12:09.191Z,3.33
2023-04-09T16:17:10.790Z,2.22
2023-04-09T16:22:12.497Z,2.25
2023-04-09T16:27:14.383Z,2.00
2023-04-09T16:32:15.972Z,1.55
2023-04-09T16:37:17.312Z,3.08
2023-04-09T16:42:18.663Z,1.48
2023-04-09T16:47:20.163Z,2.17
2023-04-09T16:52:21.687Z,4.63
2023-04-09T16:57:22.996Z,2.40
2023-04-09T17:02:24.695Z,2.45
2023-04-09T17:07:26.361Z,1.92
2023-04-09T17:12:27.724Z,2.13
2023-04-09T17:17:29.161Z,2.13
2023-04-09T17:22:30.553Z,2.63
2023-04-09T17:27:32.029Z,1.80
2023-04-09T17:32:33.384Z,4.07
2023-04-09T17:37:34.892Z,2.25
2023-04-09T17:42:36.236Z,2.63
2023-04-09T17:47:38.996Z,3.28
2023-04-09T17:52:40.624Z,2.35
2023-04-09T17:57:42.680Z,3.45
2023-04-09T18:02:44.912Z,6.65
2023-04-09T18:07:46.430Z,3.70
2023-04-09T18:12:47.728Z,2.83
2023-04-09T18:17:49.238Z,3.10
2023-04-09T18:22:50.720Z,5.53
2023-04-09T18:27:52.086Z,7.10
2023-04-09T18:32:53.770Z,7.05
2023-04-09T18:37:55.201Z,4.82
2023-04-09T18:42:56.746Z,7.15
2023-04-09T18:47:58.116Z,9.55
2023-04-09T18:52:59.497Z,8.48
2023-04-09T18:58:01.951Z,9.10
2023-04-09T19:03:04.521Z,8.02
2023-04-09T19:08:06.833Z,5.00
2023-04-09T19:13:08.237Z,6.18
2023-04-09T19:18:09.628Z,7.72
2023-04-09T19:23:10.966Z,6.22
2023-04-09T19:28:12.294Z,4.13
2023-04-09T19:33:13.625Z,7.47
2023-04-09T19:38:16.283Z,5.95
2023-04-09T19:43:17.776Z,7.25
2023-04-09T19:48:19.189Z,9.65
2023-04-09T19:53:20.566Z,6.57
2023-04-09T19:58:22.114Z,9.45
2023-04-09T20:03:23.593Z,7.80
2023-04-09T20:08:25.054Z,7.65
2023-04-09T20:13:26.618Z,7.43
2023-04-09T20:18:28.576Z,8.70
2023-04-09T20:23:30.221Z,9.05
2023-04-09T20:28:31.824Z,9.65
2023-04-09T20:33:33.944Z,8.85
2023-04-09T20:38:35.305Z,9.35
2023-04-09T20:43:38.252Z,10.65
2023-04-09T20:48:39.779Z,11.50
2023-04-09T20:53:41.135Z,9.73
2023-04-09T20:58:42.491Z,11.43
2023-04-09T21:03:44.289Z,13.48
2023-04-09T21:08:45.912Z,10.25
2023-04-09T21:13:54.478Z,9.43
2023-04-09T21:18:57.096Z,8.95
2023-04-09T21:23:58.432Z,10.82
2023-04-09T21:28:59.866Z,9.55
2023-04-09T21:34:01.246Z,10.48
2023-04-09T21:39:03.709Z,9.13
2023-04-09T21:44:08.125Z,8.38
2023-04-09T21:49:09.585Z,9.10
2023-04-09T21:54:11.251Z,13.50
2023-04-09T21:59:12.599Z,10.38
2023-04-09T22:04:14.217Z,7.38
2023-04-09T22:09:15.858Z,12.73
2023-04-09T22:14:17.822Z,8.75
2023-04-09T22:19:19.147Z,9.32
2023-04-09T22:24:27.045Z,10.52
2023-04-09T22:29:29.301Z,11.13
2023-04-09T22:34:30.658Z,8.80
2023-04-09T22:39:31.998Z,11.98
2023-04-09T22:44:33.388Z,9.07
2023-04-09T22:49:34.923Z,8.80
2023-04-09T22:54:37.868Z,8.77
2023-04-09T22:59:40.678Z,8.77
2023-04-09T23:04:42.480Z,9.25
2023-04-09T23:09:45.148Z,11.10
2023-04-09T23:14:48.234Z,8.35
2023-04-09T23:19:52.287Z,9.20
2023-04-09T23:24:53.627Z,10.32
2023-04-09T23:29:56.434Z,8.27
2023-04-09T23:34:58.827Z,9.90
2023-04-09T23:40:00.334Z,7.85
2023-04-09T23:45:05.944Z,8.60
2023-04-09T23:50:08.217Z,7.47
2023-04-09T23:55:10.582Z,8.02
